Weather at Mc Carthy Airport

Public forecast

Using degrees Fahrenheit for public forecast. Weather courtesy of forecast.io.

Closest aviation weather report (METAR) to Mc Carthy Airport

Closest report is Beaver Creek Airport, 82.0 nm (151.9 km) NE.

2024/06/23 17:00 (retrieved 55 minutes ago)

CYXQ 231700Z 36005KT 290V030 25SM FEW040TCU BKN080 BKN250 16/09 A2979 RMK TCU1AC4CI1 /FU/ SLP103 DENSITY ALT 3000FT

Closest aviation forecast (TAF) to Mc Carthy Airport

Closest forecast is Gulkana Airport, 84.3 nm (156.0 km) WNW.

2024/06/23 12:30 (retrieved 5 hours ago)

TAF PAGK 231126Z 2312/2412 34004KT P6SM SKC FM232200 03007KT P6SM VCTS SCT060CB BKN200 FM240600 07004KT P6SM BKN250